createdAt,value
2023-02-17T00:00:11.096Z,9.31
2023-02-17T00:01:11.078Z,9.31
2023-02-17T00:02:11.084Z,9.34
2023-02-17T00:03:11.088Z,9.34
2023-02-17T00:04:11.074Z,9.32
2023-02-17T00:05:11.029Z,9.31
2023-02-17T00:06:11.032Z,9.30
2023-02-17T00:07:11.012Z,9.31
2023-02-17T00:08:11.014Z,9.31
2023-02-17T00:09:10.994Z,9.32
2023-02-17T00:10:10.989Z,9.32
2023-02-17T00:11:10.964Z,9.34
2023-02-17T00:12:10.964Z,9.35
2023-02-17T00:13:10.966Z,9.37
2023-02-17T00:14:10.936Z,9.37
2023-02-17T00:15:10.921Z,9.35
2023-02-17T00:16:10.955Z,9.37
2023-02-17T00:17:10.900Z,9.35
2023-02-17T00:18:10.896Z,9.34
2023-02-17T00:19:10.890Z,9.35
2023-02-17T00:20:10.885Z,9.34
2023-02-17T00:21:10.858Z,9.34
2023-02-17T00:22:10.946Z,9.34
2023-02-17T00:23:10.838Z,9.37
2023-02-17T00:24:10.840Z,9.38
2023-02-17T00:25:10.821Z,9.37
2023-02-17T00:26:10.808Z,9.40
2023-02-17T00:27:10.813Z,9.42
2023-02-17T00:28:10.794Z,9.41
2023-02-17T00:29:10.786Z,9.41
2023-02-17T00:30:10.807Z,9.41
2023-02-17T00:31:10.917Z,9.41
2023-02-17T00:32:10.896Z,9.41
2023-02-17T00:33:10.731Z,9.40
2023-02-17T00:34:10.730Z,9.44
2023-02-17T00:35:10.702Z,9.42
2023-02-17T00:36:10.702Z,9.44
2023-02-17T00:37:10.681Z,9.44
2023-02-17T00:38:10.679Z,9.45
2023-02-17T00:39:10.671Z,9.45
2023-02-17T00:40:10.657Z,9.44
2023-02-17T00:41:10.639Z,9.45
2023-02-17T00:42:10.634Z,9.44
2023-02-17T00:43:10.619Z,9.42
2023-02-17T00:44:10.624Z,9.42
2023-02-17T00:45:10.596Z,9.44
2023-02-17T00:46:10.619Z,9.45
2023-02-17T00:47:10.586Z,9.48
2023-02-17T00:48:10.562Z,9.48
2023-02-17T00:49:10.656Z,9.49
2023-02-17T00:50:10.546Z,9.52
2023-02-17T00:51:10.526Z,9.52
2023-02-17T00:52:10.524Z,9.52
2023-02-17T00:53:10.508Z,9.53
2023-02-17T00:54:10.509Z,9.49
2023-02-17T00:55:10.484Z,9.52
2023-02-17T00:56:10.490Z,9.49
2023-02-17T00:57:10.461Z,9.49
2023-02-17T00:58:10.463Z,9.49
2023-02-17T00:59:10.452Z,9.50
2023-02-17T01:00:10.443Z,9.50
2023-02-17T01:01:10.457Z,9.53
2023-02-17T01:02:10.413Z,9.53
2023-02-17T01:03:10.395Z,9.55
2023-02-17T01:04:10.409Z,9.56
2023-02-17T01:05:10.373Z,9.53
2023-02-17T01:06:10.368Z,9.53
2023-02-17T01:07:10.360Z,9.52
2023-02-17T01:08:10.343Z,9.50
2023-02-17T01:09:10.337Z,9.52
2023-02-17T01:10:10.329Z,9.52
2023-02-17T01:11:10.315Z,9.53
2023-02-17T01:12:10.308Z,9.52
2023-02-17T01:13:10.287Z,9.55
2023-02-17T01:14:10.289Z,9.52
2023-02-17T01:15:10.266Z,9.50
2023-02-17T01:16:10.296Z,9.50
2023-02-17T01:17:10.245Z,9.52
2023-02-17T01:18:10.243Z,9.52
2023-02-17T01:19:10.232Z,9.52
2023-02-17T01:20:10.207Z,9.53
2023-02-17T01:21:10.199Z,9.53
2023-02-17T01:22:10.186Z,9.55
2023-02-17T01:23:10.178Z,9.56
2023-02-17T01:24:10.172Z,9.56
2023-02-17T01:25:10.158Z,9.58
2023-02-17T01:26:10.137Z,9.58
2023-02-17T01:27:10.136Z,9.58
2023-02-17T01:28:10.115Z,9.58
2023-02-17T01:29:10.145Z,9.58
2023-02-17T01:30:10.129Z,9.58
2023-02-17T01:31:10.191Z,9.58
2023-02-17T01:32:10.075Z,9.59
2023-02-17T01:33:10.068Z,9.62
2023-02-17T01:34:10.068Z,9.63
2023-02-17T01:35:10.042Z,9.60
2023-02-17T01:36:10.032Z,9.60
2023-02-17T01:37:10.023Z,9.62
2023-02-17T01:38:10.022Z,9.62
2023-02-17T01:39:10.029Z,9.62
2023-02-17T01:40:10.021Z,9.63
2023-02-17T01:41:09.973Z,9.62
2023-02-17T01:42:09.957Z,9.63
2023-02-17T01:43:09.951Z,9.63
2023-02-17T01:44:09.958Z,9.67
2023-02-17T01:45:09.926Z,9.65
2023-02-17T01:46:09.917Z,9.65
2023-02-17T01:47:09.903Z,9.67
2023-02-17T01:48:09.891Z,9.67
2023-02-17T01:49:09.904Z,9.65
2023-02-17T01:50:09.865Z,9.67
2023-02-17T01:51:09.856Z,9.67
2023-02-17T01:52:09.849Z,9.65
2023-02-17T01:53:09.838Z,9.67
2023-02-17T01:54:09.831Z,9.67
2023-02-17T01:55:09.817Z,9.67
2023-02-17T01:56:09.822Z,9.67
2023-02-17T01:57:09.792Z,9.65
2023-02-17T01:58:09.777Z,9.67
2023-02-17T01:59:09.780Z,9.70
2023-02-17T02:00:09.756Z,9.70
2023-02-17T02:01:09.752Z,9.70
2023-02-17T02:02:09.849Z,9.70
2023-02-17T02:03:09.725Z,9.68
2023-02-17T02:04:09.723Z,9.68
2023-02-17T02:05:09.700Z,9.71
2023-02-17T02:06:09.685Z,9.71
2023-02-17T02:07:09.681Z,9.73
2023-02-17T02:08:09.669Z,9.71
2023-02-17T02:09:09.701Z,9.70
2023-02-17T02:10:09.640Z,9.70
2023-02-17T02:11:09.637Z,9.73
2023-02-17T02:12:09.617Z,9.73
2023-02-17T02:13:09.623Z,9.73
2023-02-17T02:14:09.609Z,9.74
2023-02-17T02:15:09.608Z,9.75
2023-02-17T02:16:09.759Z,9.75
2023-02-17T02:17:09.568Z,9.74
2023-02-17T02:18:09.555Z,9.75
2023-02-17T02:19:09.550Z,9.77
2023-02-17T02:20:09.546Z,9.77
2023-02-17T02:21:09.529Z,9.77
2023-02-17T02:22:09.509Z,9.75
2023-02-17T02:23:09.501Z,9.77
2023-02-17T02:24:09.503Z,9.78
2023-02-17T02:25:09.507Z,9.80
2023-02-17T02:26:09.475Z,9.78
2023-02-17T02:27:09.476Z,9.78
2023-02-17T02:28:09.447Z,9.78
2023-02-17T02:29:09.445Z,9.78
2023-02-17T02:30:09.497Z,9.78
2023-02-17T02:31:09.574Z,9.78
2023-02-17T02:32:09.404Z,9.78
2023-02-17T02:33:09.403Z,9.81
2023-02-17T02:34:09.377Z,9.80
2023-02-17T02:35:09.384Z,9.78
2023-02-17T02:36:09.356Z,9.78
2023-02-17T02:37:09.354Z,9.80
2023-02-17T02:38:09.351Z,9.80
2023-02-17T02:39:09.327Z,9.78
2023-02-17T02:40:09.374Z,9.78
2023-02-17T02:41:09.315Z,9.78
2023-02-17T02:42:09.285Z,9.85
2023-02-17T02:43:09.288Z,9.83
2023-02-17T02:44:09.268Z,9.85
2023-02-17T02:45:09.274Z,9.86
2023-02-17T02:46:09.642Z,9.86
2023-02-17T02:47:09.240Z,9.88
2023-02-17T02:48:09.241Z,9.86
2023-02-17T02:49:09.218Z,9.88
2023-02-17T02:50:09.219Z,9.85
2023-02-17T02:51:09.197Z,9.85
2023-02-17T02:52:09.181Z,9.86
2023-02-17T02:53:09.168Z,9.86
2023-02-17T02:54:09.152Z,9.86
2023-02-17T02:55:09.168Z,9.86
2023-02-17T02:56:09.151Z,9.89
2023-02-17T02:57:09.129Z,9.88
2023-02-17T02:58:09.117Z,9.88
2023-02-17T02:59:09.104Z,9.88
2023-02-17T03:00:09.145Z,9.86
2023-02-17T03:01:09.169Z,9.88
2023-02-17T03:02:09.069Z,9.88
2023-02-17T03:03:09.065Z,9.89
2023-02-17T03:04:09.106Z,9.89
2023-02-17T03:05:09.044Z,9.89
2023-02-17T03:06:09.027Z,9.91
2023-02-17T03:07:09.011Z,9.89
2023-02-17T03:08:09.021Z,9.89
2023-02-17T03:09:08.986Z,9.91
2023-02-17T03:10:08.999Z,9.92
2023-02-17T03:11:08.969Z,9.91
2023-02-17T03:12:08.960Z,9.92
2023-02-17T03:13:08.941Z,9.91
2023-02-17T03:14:08.989Z,9.91
2023-02-17T03:15:08.970Z,9.92
2023-02-17T03:16:09.100Z,9.93
2023-02-17T03:17:08.902Z,9.93
2023-02-17T03:18:08.894Z,9.92
2023-02-17T03:19:08.871Z,9.92
2023-02-17T03:20:08.922Z,9.93
2023-02-17T03:21:08.858Z,9.95
2023-02-17T03:22:08.854Z,9.96
2023-02-17T03:23:08.868Z,9.98
2023-02-17T03:24:08.832Z,9.95
2023-02-17T03:25:08.818Z,9.96
2023-02-17T03:26:08.817Z,9.99
2023-02-17T03:27:08.833Z,9.99
2023-02-17T03:28:08.776Z,9.99
2023-02-17T03:29:08.767Z,10.01
2023-02-17T03:30:08.829Z,9.99
2023-02-17T03:31:08.819Z,9.99
2023-02-17T03:32:08.780Z,9.99
2023-02-17T03:33:08.723Z,9.99
2023-02-17T03:34:08.713Z,10.02
2023-02-17T03:35:08.725Z,10.01
2023-02-17T03:36:08.692Z,10.01
2023-02-17T03:37:08.677Z,9.98
2023-02-17T03:38:08.670Z,10.01
2023-02-17T03:39:08.654Z,10.01
2023-02-17T03:40:08.674Z,10.02
2023-02-17T03:41:08.644Z,10.04
2023-02-17T03:42:08.622Z,10.02
2023-02-17T03:43:08.613Z,10.01
2023-02-17T03:44:08.608Z,10.04
2023-02-17T03:45:08.589Z,10.04
2023-02-17T03:46:09.015Z,10.06
2023-02-17T03:47:08.560Z,10.06
2023-02-17T03:48:08.555Z,10.04
2023-02-17T03:49:08.554Z,10.06
2023-02-17T03:50:08.542Z,10.06
2023-02-17T03:51:08.578Z,10.06
2023-02-17T03:52:08.510Z,10.07
2023-02-17T03:53:08.499Z,10.07
2023-02-17T03:54:08.491Z,10.07
2023-02-17T03:55:08.472Z,10.09
2023-02-17T03:56:08.478Z,10.10
2023-02-17T03:57:08.449Z,10.11
2023-02-17T03:58:08.456Z,10.14
2023-02-17T03:59:08.444Z,10.13
2023-02-17T04:00:08.949Z,10.13
2023-02-17T04:01:08.444Z,10.14
2023-02-17T04:02:08.407Z,10.14
2023-02-17T04:03:08.396Z,10.14
2023-02-17T04:04:08.442Z,10.13
2023-02-17T04:05:08.372Z,10.13
2023-02-17T04:06:08.703Z,10.13
2023-02-17T04:07:08.337Z,10.11
2023-02-17T04:08:08.351Z,10.13
2023-02-17T04:09:08.314Z,10.13
2023-02-17T04:10:09.536Z,10.13
2023-02-17T04:11:08.308Z,10.13
2023-02-17T04:12:08.286Z,10.13
2023-02-17T04:13:08.267Z,10.14
2023-02-17T04:14:08.271Z,10.17
2023-02-17T04:15:08.247Z,10.17
2023-02-17T04:16:08.586Z,10.16
2023-02-17T04:17:08.221Z,10.16
2023-02-17T04:18:08.219Z,10.17
2023-02-17T04:19:08.201Z,10.18
2023-02-17T04:20:08.193Z,10.17
2023-02-17T04:21:08.194Z,10.18
2023-02-17T04:22:08.178Z,10.18
2023-02-17T04:23:08.157Z,10.18
2023-02-17T04:24:08.155Z,10.20
2023-02-17T04:25:08.138Z,10.22
2023-02-17T04:26:08.515Z,10.24
2023-02-17T04:27:08.118Z,10.26
2023-02-17T04:28:08.101Z,10.28
2023-02-17T04:29:08.113Z,10.26
2023-02-17T04:30:08.137Z,10.26
2023-02-17T04:31:08.189Z,10.26
2023-02-17T04:32:08.137Z,10.28
2023-02-17T04:33:08.044Z,10.28
2023-02-17T04:34:08.035Z,10.29
2023-02-17T04:35:08.022Z,10.32
2023-02-17T04:36:08.291Z,10.35
2023-02-17T04:37:07.999Z,10.35
2023-02-17T04:38:07.993Z,10.32
2023-02-17T04:39:07.984Z,10.31
2023-02-17T04:40:08.020Z,10.29
2023-02-17T04:41:07.966Z,10.31
2023-02-17T04:42:07.946Z,10.29
2023-02-17T04:43:07.930Z,10.31
2023-02-17T04:44:07.929Z,10.29
2023-02-17T04:45:07.906Z,10.29
2023-02-17T04:46:08.480Z,10.29
2023-02-17T04:47:07.889Z,10.28
2023-02-17T04:48:07.894Z,10.26
2023-02-17T04:49:07.865Z,10.26
2023-02-17T04:50:07.868Z,10.28
2023-02-17T04:51:07.876Z,10.28
2023-02-17T04:52:07.847Z,10.29
2023-02-17T04:53:07.838Z,10.31
2023-02-17T04:54:07.820Z,10.28
2023-02-17T04:55:07.807Z,10.32
2023-02-17T04:56:08.082Z,10.36
2023-02-17T04:57:07.775Z,10.36
2023-02-17T04:58:07.769Z,10.34
2023-02-17T04:59:07.751Z,10.36
2023-02-17T05:00:07.752Z,10.35
2023-02-17T05:01:07.813Z,10.34
2023-02-17T05:02:07.726Z,10.34
2023-02-17T05:03:07.712Z,10.35
2023-02-17T05:04:07.715Z,10.36
2023-02-17T05:05:07.786Z,10.38
2023-02-17T05:06:07.804Z,10.43
2023-02-17T05:07:07.666Z,10.42
2023-02-17T05:08:07.672Z,10.42
2023-02-17T05:09:07.651Z,10.39
2023-02-17T05:10:07.636Z,10.38
2023-02-17T05:11:07.639Z,10.36
2023-02-17T05:12:07.618Z,10.36
2023-02-17T05:13:07.611Z,10.34
2023-02-17T05:14:07.596Z,10.35
2023-02-17T05:15:07.581Z,10.34
2023-02-17T05:16:07.990Z,10.36
2023-02-17T05:17:07.559Z,10.34
2023-02-17T05:18:07.549Z,10.34
2023-02-17T05:19:07.531Z,10.35
2023-02-17T05:20:07.546Z,10.38
2023-02-17T05:21:07.527Z,10.38
2023-02-17T05:22:07.503Z,10.39
2023-02-17T05:23:07.495Z,10.39
2023-02-17T05:24:07.496Z,10.39
2023-02-17T05:25:07.485Z,10.42
2023-02-17T05:26:07.945Z,10.42
2023-02-17T05:27:07.462Z,10.42
2023-02-17T05:28:07.438Z,10.43
2023-02-17T05:29:07.449Z,10.44
2023-02-17T05:30:07.447Z,10.46
2023-02-17T05:31:07.489Z,10.43
2023-02-17T05:32:07.409Z,10.42
2023-02-17T05:33:07.376Z,10.44
2023-02-17T05:34:07.368Z,10.44
2023-02-17T05:35:07.362Z,10.42
2023-02-17T05:36:07.689Z,10.39
2023-02-17T05:37:07.373Z,10.38
2023-02-17T05:38:07.412Z,10.36
2023-02-17T05:39:07.315Z,10.38
2023-02-17T05:40:07.317Z,10.43
2023-02-17T05:41:07.303Z,10.44
2023-02-17T05:42:07.303Z,10.52
2023-02-17T05:43:07.278Z,10.52
2023-02-17T05:44:07.260Z,10.51
2023-02-17T05:45:07.248Z,10.52
2023-02-17T05:46:07.599Z,10.51
2023-02-17T05:47:07.244Z,10.47
2023-02-17T05:48:07.213Z,10.47
2023-02-17T05:49:07.205Z,10.46
2023-02-17T05:50:07.203Z,10.51
2023-02-17T05:51:07.187Z,10.51
2023-02-17T05:52:07.181Z,10.49
2023-02-17T05:53:07.170Z,10.51
2023-02-17T05:54:07.150Z,10.51
2023-02-17T05:55:07.137Z,10.49
2023-02-17T05:56:07.498Z,10.46
2023-02-17T05:57:07.127Z,10.46
2023-02-17T05:58:07.113Z,10.44
2023-02-17T05:59:07.089Z,10.43
2023-02-17T06:00:07.090Z,10.43
2023-02-17T06:01:07.071Z,10.43
2023-02-17T06:02:07.084Z,10.44
2023-02-17T06:03:07.120Z,10.51
2023-02-17T06:04:07.046Z,10.51
2023-02-17T06:05:07.060Z,10.51
2023-02-17T06:06:07.315Z,10.54
2023-02-17T06:07:07.016Z,10.52
2023-02-17T06:08:06.999Z,10.51
2023-02-17T06:09:06.991Z,10.49
2023-02-17T06:10:06.985Z,10.49
2023-02-17T06:11:06.977Z,10.47
2023-02-17T06:12:06.972Z,10.47
2023-02-17T06:13:06.942Z,10.49
2023-02-17T06:14:06.936Z,10.49
2023-02-17T06:15:06.917Z,10.55
2023-02-17T06:16:07.324Z,10.66
2023-02-17T06:17:06.921Z,10.66
2023-02-17T06:18:06.896Z,10.65
2023-02-17T06:19:06.887Z,10.62
2023-02-17T06:20:06.866Z,10.65
2023-02-17T06:21:06.852Z,10.58
2023-02-17T06:22:06.850Z,10.62
2023-02-17T06:23:06.840Z,10.63
2023-02-17T06:24:06.820Z,10.60
2023-02-17T06:25:06.806Z,10.63
2023-02-17T06:26:07.128Z,10.63
2023-02-17T06:27:06.785Z,10.66
2023-02-17T06:28:06.801Z,10.66
2023-02-17T06:29:06.764Z,10.65
2023-02-17T06:30:06.777Z,10.65
2023-02-17T06:31:06.816Z,10.63
2023-02-17T06:32:06.754Z,10.62
2023-02-17T06:33:06.730Z,10.65
2023-02-17T06:34:06.857Z,10.63
2023-02-17T06:35:06.701Z,10.63
2023-02-17T06:36:07.022Z,10.62
2023-02-17T06:37:06.667Z,10.65
2023-02-17T06:38:06.725Z,10.65
2023-02-17T06:39:06.667Z,10.65
2023-02-17T06:40:06.646Z,10.65
2023-02-17T06:41:06.635Z,10.66
2023-02-17T06:42:06.617Z,10.70
2023-02-17T06:43:06.615Z,10.69
2023-02-17T06:44:06.597Z,10.70
2023-02-17T06:45:06.593Z,10.70
2023-02-17T06:46:06.893Z,10.70
2023-02-17T06:47:06.561Z,10.69
2023-02-17T06:48:06.593Z,10.69
2023-02-17T06:49:06.571Z,10.68
2023-02-17T06:50:06.533Z,10.66
2023-02-17T06:51:06.517Z,10.66
2023-02-17T06:52:06.504Z,10.66
2023-02-17T06:53:06.504Z,10.68
2023-02-17T06:54:06.501Z,10.66
2023-02-17T06:55:06.468Z,10.69
2023-02-17T06:56:06.851Z,10.69
2023-02-17T06:57:06.467Z,10.72
2023-02-17T06:58:06.454Z,10.73
2023-02-17T06:59:06.424Z,10.75
2023-02-17T07:00:06.421Z,10.75
2023-02-17T07:01:06.404Z,10.75
2023-02-17T07:02:06.483Z,10.76
2023-02-17T07:03:06.561Z,10.75
2023-02-17T07:04:06.373Z,10.72
2023-02-17T07:05:06.365Z,10.73
2023-02-17T07:06:06.706Z,10.73
2023-02-17T07:07:06.340Z,10.76
2023-02-17T07:08:06.353Z,10.80
2023-02-17T07:09:06.320Z,10.78
2023-02-17T07:10:06.322Z,10.76
2023-02-17T07:11:06.299Z,10.75
2023-02-17T07:12:06.290Z,10.72
2023-02-17T07:13:06.318Z,10.70
2023-02-17T07:14:06.271Z,10.73
2023-02-17T07:15:06.251Z,10.73
2023-02-17T07:16:06.643Z,10.72
2023-02-17T07:17:06.235Z,10.68
2023-02-17T07:18:06.235Z,10.69
2023-02-17T07:19:06.209Z,10.68
2023-02-17T07:20:06.202Z,10.66
2023-02-17T07:21:06.194Z,10.68
2023-02-17T07:22:06.182Z,10.66
2023-02-17T07:23:06.176Z,10.65
2023-02-17T07:24:06.170Z,10.63
2023-02-17T07:25:06.150Z,10.60
2023-02-17T07:26:06.546Z,10.60
2023-02-17T07:27:06.122Z,10.60
2023-02-17T07:28:06.126Z,10.58
2023-02-17T07:29:06.103Z,10.66
2023-02-17T07:30:06.128Z,10.63
2023-02-17T07:31:06.092Z,10.60
2023-02-17T07:32:06.098Z,10.57
2023-02-17T07:33:06.976Z,10.57
2023-02-17T07:34:06.061Z,10.58
2023-02-17T07:35:06.041Z,10.57
2023-02-17T07:36:06.376Z,10.55
2023-02-17T07:37:06.028Z,10.54
2023-02-17T07:38:06.026Z,10.55
2023-02-17T07:39:05.984Z,10.55
2023-02-17T07:40:05.976Z,10.57
2023-02-17T07:41:05.974Z,10.60
2023-02-17T07:42:05.957Z,10.62
2023-02-17T07:43:05.948Z,10.62
2023-02-17T07:44:05.944Z,10.60
2023-02-17T07:45:05.941Z,10.58
2023-02-17T07:46:06.277Z,10.58
2023-02-17T07:47:05.904Z,10.58
2023-02-17T07:48:05.897Z,10.57
2023-02-17T07:49:05.891Z,10.57
2023-02-17T07:50:05.866Z,10.55
2023-02-17T07:51:05.849Z,10.54
2023-02-17T07:52:05.847Z,10.55
2023-02-17T07:53:05.827Z,10.58
2023-02-17T07:54:05.844Z,10.58
2023-02-17T07:55:05.811Z,10.63
2023-02-17T07:56:06.084Z,10.66
2023-02-17T07:57:05.798Z,10.66
2023-02-17T07:58:05.783Z,10.70
2023-02-17T07:59:05.769Z,10.72
2023-02-17T08:00:05.754Z,10.73
2023-02-17T08:01:05.743Z,10.70
2023-02-17T08:02:05.781Z,10.72
2023-02-17T08:03:05.719Z,10.72
2023-02-17T08:04:05.799Z,10.72
2023-02-17T08:05:05.696Z,10.73
2023-02-17T08:06:05.906Z,10.73
2023-02-17T08:07:05.673Z,10.72
2023-02-17T08:08:05.663Z,10.73
2023-02-17T08:09:05.661Z,10.72
2023-02-17T08:10:05.698Z,10.73
2023-02-17T08:11:05.980Z,10.73
2023-02-17T08:12:05.622Z,10.73
2023-02-17T08:13:05.603Z,10.75
2023-02-17T08:14:05.614Z,10.76
2023-02-17T08:15:05.593Z,10.78
2023-02-17T08:16:06.032Z,10.78
2023-02-17T08:17:05.564Z,10.80
2023-02-17T08:18:05.575Z,10.80
2023-02-17T08:19:07.510Z,10.81
2023-02-17T08:20:09.124Z,10.83
2023-02-17T08:21:05.880Z,10.83
2023-02-17T08:22:05.547Z,10.81
2023-02-17T08:23:05.498Z,10.81
2023-02-17T08:24:05.499Z,10.81
2023-02-17T08:25:05.474Z,10.83
2023-02-17T08:26:05.877Z,10.84
2023-02-17T08:27:05.449Z,10.84
2023-02-17T08:28:05.446Z,10.86
2023-02-17T08:29:05.441Z,10.86
2023-02-17T08:30:05.487Z,10.86
2023-02-17T08:31:05.501Z,10.87
2023-02-17T08:32:05.581Z,10.87
2023-02-17T08:33:05.405Z,10.88
2023-02-17T08:34:05.380Z,10.90
2023-02-17T08:35:05.382Z,10.90
2023-02-17T08:36:05.676Z,10.90
2023-02-17T08:37:05.362Z,10.91
2023-02-17T08:38:05.372Z,10.93
2023-02-17T08:39:05.326Z,10.93
2023-02-17T08:40:05.330Z,10.93
2023-02-17T08:41:05.299Z,10.95
2023-02-17T08:42:05.296Z,10.98
2023-02-17T08:43:05.288Z,10.99
2023-02-17T08:44:05.265Z,10.98
2023-02-17T08:45:05.273Z,11.01
2023-02-17T08:46:05.658Z,11.02
2023-02-17T08:47:05.238Z,11.02
2023-02-17T08:48:05.224Z,11.01
2023-02-17T08:49:05.250Z,11.01
2023-02-17T08:50:05.214Z,11.01
2023-02-17T08:51:05.252Z,11.02
2023-02-17T08:52:05.205Z,11.02
2023-02-17T08:53:05.162Z,11.02
2023-02-17T08:54:05.196Z,11.02
2023-02-17T08:55:05.150Z,11.03
2023-02-17T08:56:05.547Z,11.03
2023-02-17T08:57:05.120Z,11.05
2023-02-17T08:58:05.177Z,11.05
2023-02-17T08:59:05.150Z,11.02
2023-02-17T09:00:06.454Z,11.05
2023-02-17T09:01:05.111Z,11.06
2023-02-17T09:02:05.128Z,11.05
2023-02-17T09:03:05.065Z,11.05
2023-02-17T09:04:05.038Z,11.08
2023-02-17T09:05:05.162Z,11.08
2023-02-17T09:06:05.378Z,11.08
2023-02-17T09:07:05.022Z,11.09
2023-02-17T09:08:05.001Z,11.11
2023-02-17T09:09:05.009Z,11.12
2023-02-17T09:10:04.988Z,11.12
2023-02-17T09:11:04.969Z,11.16
2023-02-17T09:12:04.960Z,11.17
2023-02-17T09:13:05.005Z,11.17
2023-02-17T09:14:04.931Z,11.17
2023-02-17T09:15:04.947Z,11.16
2023-02-17T09:16:05.449Z,11.17
2023-02-17T09:17:04.933Z,11.20
2023-02-17T09:18:04.882Z,11.19
2023-02-17T09:19:04.888Z,11.21
2023-02-17T09:20:09.292Z,11.20
2023-02-17T09:21:04.878Z,11.23
2023-02-17T09:22:04.838Z,11.23
2023-02-17T09:23:04.836Z,11.23
2023-02-17T09:24:04.866Z,11.26
2023-02-17T09:25:04.916Z,11.27
2023-02-17T09:26:05.156Z,11.27
2023-02-17T09:27:04.796Z,11.28
2023-02-17T09:28:04.776Z,11.26
2023-02-17T09:29:04.786Z,11.27
2023-02-17T09:30:04.787Z,11.28
2023-02-17T09:31:04.820Z,11.33
2023-02-17T09:32:04.859Z,11.33
2023-02-17T09:33:04.788Z,11.35
2023-02-17T09:34:04.713Z,11.33
2023-02-17T09:35:04.725Z,11.35
2023-02-17T09:36:05.093Z,11.35
2023-02-17T09:37:04.757Z,11.38
2023-02-17T09:38:04.668Z,11.41
2023-02-17T09:39:04.675Z,11.41
2023-02-17T09:40:04.721Z,11.42
2023-02-17T09:41:04.633Z,11.46
2023-02-17T09:42:04.632Z,11.46
2023-02-17T09:43:04.628Z,11.51
2023-02-17T09:44:04.680Z,11.53
2023-02-17T09:45:04.615Z,11.54
2023-02-17T09:46:05.007Z,11.56
2023-02-17T09:47:04.643Z,11.56
2023-02-17T09:48:04.671Z,11.59
2023-02-17T09:49:04.597Z,11.62
2023-02-17T09:50:04.552Z,11.64
2023-02-17T09:51:04.590Z,11.66
2023-02-17T09:52:04.508Z,11.64
2023-02-17T09:53:04.539Z,11.64
2023-02-17T09:54:04.570Z,11.66
2023-02-17T09:55:04.517Z,11.66
2023-02-17T09:56:04.903Z,11.67
2023-02-17T09:57:04.458Z,11.69
2023-02-17T09:58:04.556Z,11.70
2023-02-17T09:59:04.505Z,11.69
2023-02-17T10:00:04.468Z,11.70
2023-02-17T10:01:04.409Z,11.70
2023-02-17T10:02:04.444Z,11.75
2023-02-17T10:03:04.421Z,11.77
2023-02-17T10:04:04.430Z,11.74
2023-02-17T10:05:04.420Z,11.77
2023-02-17T10:06:04.698Z,11.78
2023-02-17T10:07:04.342Z,11.78
2023-02-17T10:08:04.336Z,11.81
2023-02-17T10:09:04.433Z,11.82
2023-02-17T10:10:04.400Z,11.82
2023-02-17T10:11:04.302Z,11.85
2023-02-17T10:12:04.397Z,11.84
2023-02-17T10:13:04.305Z,11.85
2023-02-17T10:14:04.282Z,11.90
2023-02-17T10:15:04.312Z,11.90
2023-02-17T10:16:04.569Z,11.90
2023-02-17T10:17:04.244Z,11.93
2023-02-17T10:18:04.243Z,11.90
2023-02-17T10:19:04.216Z,11.88
2023-02-17T10:20:04.206Z,11.96
2023-02-17T10:21:04.250Z,11.97
2023-02-17T10:22:04.197Z,11.98
2023-02-17T10:23:04.166Z,12.00
2023-02-17T10:24:04.149Z,12.01
2023-02-17T10:25:04.148Z,12.05
2023-02-17T10:26:04.420Z,12.07
2023-02-17T10:27:04.199Z,12.08
2023-02-17T10:28:04.133Z,12.13
2023-02-17T10:29:04.095Z,12.12
2023-02-17T10:30:04.185Z,12.12
2023-02-17T10:31:04.212Z,12.12
2023-02-17T10:32:04.298Z,12.12
2023-02-17T10:33:04.122Z,12.12
2023-02-17T10:34:04.098Z,12.13
2023-02-17T10:35:04.042Z,12.16
2023-02-17T10:36:04.192Z,12.18
2023-02-17T10:37:04.086Z,12.21
2023-02-17T10:38:03.989Z,12.22
2023-02-17T10:39:03.988Z,12.26
2023-02-17T10:40:03.986Z,12.33
2023-02-17T10:41:03.953Z,12.38
2023-02-17T10:42:03.944Z,12.48
2023-02-17T10:43:07.322Z,12.49
2023-02-17T10:44:03.926Z,12.52
2023-02-17T10:45:03.956Z,12.52
2023-02-17T10:46:03.899Z,12.52
2023-02-17T10:47:03.890Z,12.54
2023-02-17T10:48:03.886Z,12.55
2023-02-17T10:49:06.326Z,12.58
2023-02-17T10:50:03.903Z,12.62
2023-02-17T10:51:03.843Z,12.67
2023-02-17T10:52:03.837Z,12.71
2023-02-17T10:53:03.826Z,12.73
2023-02-17T10:54:03.829Z,12.73
2023-02-17T10:55:11.446Z,12.74
2023-02-17T10:56:04.221Z,12.74
2023-02-17T10:57:03.775Z,12.77
2023-02-17T10:58:03.784Z,12.79
2023-02-17T10:59:03.756Z,12.79
2023-02-17T11:00:03.772Z,12.77
2023-02-17T11:01:03.888Z,12.79
2023-02-17T11:02:03.731Z,12.80
2023-02-17T11:03:03.718Z,12.84
2023-02-17T11:04:03.783Z,12.87
2023-02-17T11:05:03.702Z,12.91
2023-02-17T11:06:03.698Z,13.01
2023-02-17T11:07:03.665Z,13.09
2023-02-17T11:08:03.663Z,13.14
2023-02-17T11:09:03.657Z,13.19
2023-02-17T11:10:03.652Z,13.22
2023-02-17T11:11:03.702Z,13.25
2023-02-17T11:12:03.623Z,13.27
2023-02-17T11:13:03.699Z,13.29
2023-02-17T11:14:03.602Z,13.35
2023-02-17T11:15:03.588Z,13.38
2023-02-17T11:16:03.589Z,13.35
2023-02-17T11:17:03.563Z,13.36
2023-02-17T11:18:03.550Z,13.36
2023-02-17T11:19:03.544Z,13.35
2023-02-17T11:20:03.542Z,13.35
2023-02-17T11:21:03.513Z,13.25
2023-02-17T11:22:03.509Z,13.24
2023-02-17T11:23:03.499Z,13.19
2023-02-17T11:24:03.482Z,13.19
2023-02-17T11:25:03.488Z,13.17
2023-02-17T11:26:03.732Z,13.16
2023-02-17T11:27:03.460Z,13.16
2023-02-17T11:28:03.448Z,13.13
2023-02-17T11:29:03.472Z,13.13
2023-02-17T11:30:03.515Z,13.14
2023-02-17T11:31:03.474Z,13.17
2023-02-17T11:32:03.459Z,13.19
2023-02-17T11:33:03.382Z,13.27
2023-02-17T11:34:03.374Z,13.31
2023-02-17T11:35:03.369Z,13.32
2023-02-17T11:36:03.350Z,13.32
2023-02-17T11:37:03.339Z,13.31
2023-02-17T11:38:03.329Z,13.32
2023-02-17T11:39:03.311Z,13.29
2023-02-17T11:40:03.314Z,13.38
2023-02-17T11:41:03.297Z,13.44
2023-02-17T11:42:03.284Z,13.50
2023-02-17T11:43:03.268Z,13.48
2023-02-17T11:44:03.262Z,13.47
2023-02-17T11:45:03.255Z,13.44
2023-02-17T11:46:03.270Z,13.44
2023-02-17T11:47:03.221Z,13.51
2023-02-17T11:48:03.214Z,13.54
2023-02-17T11:49:03.217Z,13.61
2023-02-17T11:50:03.208Z,13.63
2023-02-17T11:51:03.176Z,13.59
2023-02-17T11:52:03.169Z,13.59
2023-02-17T11:53:03.152Z,13.57
2023-02-17T11:54:03.147Z,13.51
2023-02-17T11:55:03.145Z,13.53
2023-02-17T11:56:03.126Z,13.51
2023-02-17T11:57:03.111Z,13.50
2023-02-17T11:58:03.104Z,13.46
2023-02-17T11:59:03.088Z,13.47
2023-02-17T12:00:03.085Z,13.43
2023-02-17T12:01:03.073Z,13.35
2023-02-17T12:02:03.056Z,13.31
2023-02-17T12:03:03.053Z,13.28
2023-02-17T12:04:03.027Z,13.24
2023-02-17T12:05:03.062Z,13.22
2023-02-17T12:06:03.001Z,13.19
2023-02-17T12:07:02.998Z,13.16
2023-02-17T12:08:02.979Z,13.12
2023-02-17T12:09:02.971Z,13.07
2023-02-17T12:10:02.989Z,13.06
2023-02-17T12:11:02.950Z,13.07
2023-02-17T12:12:02.949Z,13.03
2023-02-17T12:13:02.927Z,13.03
2023-02-17T12:14:02.910Z,13.06
2023-02-17T12:15:02.922Z,13.07
2023-02-17T12:16:02.912Z,13.07
2023-02-17T12:17:02.881Z,13.10
2023-02-17T12:18:02.863Z,13.10
2023-02-17T12:19:02.867Z,13.12
2023-02-17T12:20:02.855Z,13.13
2023-02-17T12:21:02.842Z,13.13
2023-02-17T12:22:02.825Z,13.12
2023-02-17T12:23:02.836Z,13.12
2023-02-17T12:24:02.799Z,13.12
2023-02-17T12:25:02.816Z,13.12
2023-02-17T12:26:02.775Z,13.10
2023-02-17T12:27:02.767Z,13.09
2023-02-17T12:28:02.760Z,13.10
2023-02-17T12:29:02.755Z,13.09
2023-02-17T12:30:02.767Z,13.09
2023-02-17T12:31:03.192Z,13.09
2023-02-17T12:32:02.817Z,13.09
2023-02-17T12:33:02.718Z,13.09
2023-02-17T12:34:02.909Z,13.04
2023-02-17T12:35:02.686Z,13.01
2023-02-17T12:36:02.658Z,12.98
2023-02-17T12:37:05.964Z,12.98
2023-02-17T12:38:02.640Z,12.96
2023-02-17T12:39:02.694Z,12.94
2023-02-17T12:40:03.230Z,12.89
2023-02-17T12:41:02.613Z,12.88
2023-02-17T12:42:02.825Z,12.87
2023-02-17T12:43:02.816Z,12.84
2023-02-17T12:44:02.811Z,12.84
2023-02-17T12:45:02.570Z,12.84
2023-02-17T12:46:02.811Z,12.84
2023-02-17T12:47:05.838Z,12.84
2023-02-17T12:48:04.043Z,12.81
2023-02-17T12:49:06.528Z,12.81
2023-02-17T12:50:02.510Z,12.80
2023-02-17T12:51:02.500Z,12.80
2023-02-17T12:52:02.495Z,12.80
2023-02-17T12:53:02.711Z,12.79
2023-02-17T12:54:02.476Z,12.80
2023-02-17T12:55:02.466Z,12.79
2023-02-17T12:56:03.658Z,12.79
2023-02-17T12:57:03.984Z,12.79
2023-02-17T12:58:02.416Z,12.79
2023-02-17T12:59:02.566Z,12.77